YZR7463 ZYHB-ZSNJ
Flight info
| Callsign | YZR7463 |
|---|---|
| Flight time | 2h 26m |
| Altitude | 30100 |
| Route | DUKIR W655 NIMEM W205 NULRA A588 VENOS MAKNO W5 TAO W174 XDX MABEB GURIL RUXEL W178 OF |
| Aircraft | B744/H-SDE2E3FGILRWXY/LB2 |
Departure
| Time | 2026-05-06 05:27 |
|---|---|
| Airport | Harbin Taiping International Airport (ZYHB) |
Arrival
| Time | 2026-05-06 07:54 |
|---|---|
| Airport | Nanjing Lukou International Airport (ZSNJ) |
| Time | Latitude | Longitude | Altitude | Speed | Heading |
|---|---|---|---|---|---|
| 2026-05-06 05:09 | 45.63446 | 126.25712 | 513 ft | 0 kts | 129° |
| 2026-05-06 05:23 | 45.63424 | 126.25751 | 513 ft | 9 kts | 129° |
| 2026-05-06 05:24 | 45.63421 | 126.25830 | 513 ft | 9 kts | 56° |
| 2026-05-06 05:24 | 45.63469 | 126.25895 | 513 ft | 10 kts | 39° |
| 2026-05-06 05:24 | 45.63526 | 126.25961 | 513 ft | 11 kts | 39° |
| 2026-05-06 05:24 | 45.63589 | 126.26036 | 513 ft | 12 kts | 39° |
| 2026-05-06 05:25 | 45.63640 | 126.26112 | 513 ft | 9 kts | 81° |
| 2026-05-06 05:25 | 45.63618 | 126.26190 | 513 ft | 7 kts | 129° |
| 2026-05-06 05:25 | 45.63580 | 126.26252 | 513 ft | 8 kts | 137° |
| 2026-05-06 05:25 | 45.63525 | 126.26288 | 513 ft | 9 kts | 169° |
| 2026-05-06 05:26 | 45.63457 | 126.26289 | 513 ft | 10 kts | 185° |
| 2026-05-06 05:26 | 45.63391 | 126.26249 | 513 ft | 10 kts | 217° |
| 2026-05-06 05:26 | 45.63367 | 126.26221 | 513 ft | 0 kts | 219° |
| 2026-05-06 05:26 | 45.63345 | 126.26195 | 513 ft | 19 kts | 219° |
| 2026-05-06 05:27 | 45.63038 | 126.25838 | 513 ft | 95 kts | 220° |
| 2026-05-06 05:27 | 45.62334 | 126.25011 | 515 ft | 163 kts | 221° |
| 2026-05-06 05:27 | 45.61357 | 126.23859 | 805 ft | 195 kts | 221° |
| 2026-05-06 05:27 | 45.60256 | 126.22562 | 1487 ft | 209 kts | 221° |
| 2026-05-06 05:28 | 45.59117 | 126.21227 | 2262 ft | 217 kts | 221° |
| 2026-05-06 05:28 | 45.57927 | 126.19873 | 2855 ft | 223 kts | 215° |
| 2026-05-06 05:28 | 45.56502 | 126.18937 | 3413 ft | 231 kts | 202° |
| 2026-05-06 05:28 | 45.54985 | 126.18130 | 4052 ft | 233 kts | 203° |
| 2026-05-06 05:29 | 45.53467 | 126.17272 | 4535 ft | 244 kts | 203° |
| 2026-05-06 05:29 | 45.51839 | 126.16361 | 5071 ft | 254 kts | 204° |
| 2026-05-06 05:29 | 45.50204 | 126.15450 | 5729 ft | 257 kts | 203° |
| 2026-05-06 05:29 | 45.48528 | 126.14510 | 6398 ft | 261 kts | 203° |
| 2026-05-06 05:30 | 45.46836 | 126.13570 | 7019 ft | 265 kts | 204° |
| 2026-05-06 05:30 | 45.45100 | 126.12605 | 7574 ft | 272 kts | 203° |
| 2026-05-06 05:30 | 45.43330 | 126.11610 | 8054 ft | 282 kts | 203° |
| 2026-05-06 05:30 | 45.41470 | 126.10577 | 8523 ft | 292 kts | 203° |
| 2026-05-06 05:31 | 45.39555 | 126.09512 | 9170 ft | 296 kts | 203° |
| 2026-05-06 05:31 | 45.37633 | 126.08446 | 9842 ft | 298 kts | 203° |
| 2026-05-06 05:31 | 45.35723 | 126.07387 | 10474 ft | 300 kts | 204° |
| 2026-05-06 05:31 | 45.33763 | 126.06312 | 11074 ft | 304 kts | 203° |
| 2026-05-06 05:32 | 45.31782 | 126.05214 | 11614 ft | 309 kts | 204° |
| 2026-05-06 05:32 | 45.29762 | 126.04105 | 12081 ft | 317 kts | 204° |
| 2026-05-06 05:32 | 45.27670 | 126.02946 | 12484 ft | 327 kts | 205° |
| 2026-05-06 05:32 | 45.25564 | 126.01764 | 13098 ft | 328 kts | 205° |
| 2026-05-06 05:33 | 45.23448 | 126.00565 | 13692 ft | 330 kts | 201° |
| 2026-05-06 05:33 | 45.21167 | 125.99995 | 14267 ft | 338 kts | 186° |
| 2026-05-06 05:33 | 45.18829 | 126.00014 | 14891 ft | 338 kts | 185° |
| 2026-05-06 05:33 | 45.16484 | 125.99921 | 15482 ft | 337 kts | 189° |
| 2026-05-06 05:34 | 45.14137 | 125.99733 | 16063 ft | 336 kts | 190° |
| 2026-05-06 05:34 | 45.11822 | 125.99527 | 16652 ft | 335 kts | 191° |
| 2026-05-06 05:34 | 45.09506 | 125.99288 | 17208 ft | 334 kts | 193° |
| 2026-05-06 05:34 | 45.07205 | 125.99031 | 17689 ft | 334 kts | 193° |
| 2026-05-06 05:35 | 45.04883 | 125.98749 | 18188 ft | 334 kts | 194° |
| 2026-05-06 05:35 | 45.02570 | 125.98457 | 18680 ft | 334 kts | 194° |
| 2026-05-06 05:35 | 45.00289 | 125.98168 | 19179 ft | 333 kts | 194° |
| 2026-05-06 05:35 | 44.97974 | 125.97862 | 19590 ft | 334 kts | 195° |
| 2026-05-06 05:36 | 44.95672 | 125.97551 | 19980 ft | 336 kts | 195° |
| 2026-05-06 05:36 | 44.93288 | 125.97228 | 20407 ft | 349 kts | 195° |
| 2026-05-06 05:36 | 44.90914 | 125.96915 | 21295 ft | 348 kts | 195° |
| 2026-05-06 05:36 | 44.88514 | 125.96595 | 22137 ft | 349 kts | 195° |
| 2026-05-06 05:37 | 44.86093 | 125.96305 | 22830 ft | 352 kts | 196° |
| 2026-05-06 05:37 | 44.83662 | 125.95989 | 23638 ft | 351 kts | 196° |
| 2026-05-06 05:37 | 44.81224 | 125.95664 | 24374 ft | 353 kts | 197° |
| 2026-05-06 05:37 | 44.78781 | 125.95295 | 24998 ft | 356 kts | 198° |
| 2026-05-06 05:38 | 44.76330 | 125.94862 | 25697 ft | 356 kts | 199° |
| 2026-05-06 05:38 | 44.73877 | 125.94366 | 26338 ft | 357 kts | 200° |
| 2026-05-06 05:38 | 44.71411 | 125.93873 | 26957 ft | 361 kts | 200° |
| 2026-05-06 05:38 | 44.68935 | 125.93390 | 27514 ft | 363 kts | 200° |
| 2026-05-06 05:39 | 44.66420 | 125.92874 | 28068 ft | 367 kts | 200° |
| 2026-05-06 05:39 | 44.63897 | 125.92375 | 28642 ft | 368 kts | 200° |
| 2026-05-06 05:39 | 44.61366 | 125.91840 | 29134 ft | 371 kts | 200° |
| 2026-05-06 05:39 | 44.58758 | 125.91263 | 29631 ft | 374 kts | 201° |
| 2026-05-06 05:40 | 44.56163 | 125.90634 | 29963 ft | 383 kts | 202° |
| 2026-05-06 05:40 | 44.53498 | 125.89896 | 30124 ft | 396 kts | 203° |
| 2026-05-06 05:40 | 44.50723 | 125.89164 | 30174 ft | 416 kts | 199° |
| 2026-05-06 05:40 | 44.47797 | 125.88638 | 30164 ft | 430 kts | 198° |
| 2026-05-06 05:41 | 44.41769 | 125.87380 | 30029 ft | 438 kts | 199° |
| 2026-05-06 05:41 | 44.35781 | 125.86120 | 29953 ft | 435 kts | 199° |
| 2026-05-06 05:42 | 44.29736 | 125.84850 | 29956 ft | 432 kts | 199° |
| 2026-05-06 05:42 | 44.23702 | 125.83471 | 29971 ft | 433 kts | 200° |
| 2026-05-06 05:43 | 44.17777 | 125.82070 | 29968 ft | 437 kts | 198° |
| 2026-05-06 05:43 | 44.11707 | 125.80868 | 29952 ft | 442 kts | 194° |
| 2026-05-06 05:44 | 44.08599 | 125.81011 | 29957 ft | 458 kts | 182° |
| 2026-05-06 05:44 | 44.05452 | 125.82149 | 29955 ft | 478 kts | 169° |
| 2026-05-06 05:44 | 43.99342 | 125.86034 | 29995 ft | 478 kts | 167° |
| 2026-05-06 05:45 | 43.96262 | 125.87707 | 29964 ft | 466 kts | 175° |
| 2026-05-06 05:45 | 43.93170 | 125.88461 | 29956 ft | 446 kts | 188° |
| 2026-05-06 05:45 | 43.90115 | 125.88239 | 29972 ft | 432 kts | 199° |
| 2026-05-06 05:45 | 43.87174 | 125.87529 | 30020 ft | 432 kts | 199° |
| 2026-05-06 05:46 | 43.81200 | 125.86183 | 30006 ft | 435 kts | 199° |
| 2026-05-06 05:46 | 43.75484 | 125.83999 | 29968 ft | 421 kts | 214° |
| 2026-05-06 05:47 | 43.70248 | 125.80249 | 30009 ft | 421 kts | 215° |
| 2026-05-06 05:47 | 43.65017 | 125.76556 | 29985 ft | 422 kts | 215° |
| 2026-05-06 05:48 | 43.59823 | 125.72861 | 29994 ft | 421 kts | 215° |
| 2026-05-06 05:48 | 43.54600 | 125.69140 | 29998 ft | 424 kts | 215° |
| 2026-05-06 05:49 | 43.49376 | 125.65441 | 29994 ft | 423 kts | 215° |
| 2026-05-06 05:49 | 43.44143 | 125.61736 | 29982 ft | 423 kts | 215° |
| 2026-05-06 05:50 | 43.38915 | 125.58038 | 29965 ft | 425 kts | 216° |
| 2026-05-06 05:50 | 43.33669 | 125.54324 | 29996 ft | 427 kts | 215° |
| 2026-05-06 05:51 | 43.28388 | 125.50592 | 29993 ft | 429 kts | 214° |
| 2026-05-06 05:51 | 43.23095 | 125.46877 | 29972 ft | 428 kts | 214° |
| 2026-05-06 05:52 | 43.17810 | 125.43156 | 29985 ft | 428 kts | 214° |
| 2026-05-06 05:52 | 43.12509 | 125.39439 | 29996 ft | 429 kts | 214° |
| 2026-05-06 05:53 | 43.07205 | 125.35720 | 29990 ft | 430 kts | 214° |
| 2026-05-06 05:53 | 43.01851 | 125.31980 | 29986 ft | 432 kts | 213° |
| 2026-05-06 05:54 | 42.96486 | 125.28251 | 29971 ft | 431 kts | 213° |
| 2026-05-06 05:54 | 42.91087 | 125.24541 | 29996 ft | 435 kts | 214° |
| 2026-05-06 05:55 | 42.85699 | 125.20773 | 29975 ft | 433 kts | 214° |
| 2026-05-06 05:55 | 42.80375 | 125.16903 | 29972 ft | 436 kts | 214° |
| 2026-05-06 05:56 | 42.74958 | 125.13191 | 29963 ft | 436 kts | 215° |
| 2026-05-06 05:56 | 42.69572 | 125.09454 | 29967 ft | 436 kts | 215° |
| 2026-05-06 05:57 | 42.64200 | 125.05708 | 29963 ft | 432 kts | 214° |
| 2026-05-06 05:57 | 42.58831 | 125.01981 | 29957 ft | 435 kts | 216° |
| 2026-05-06 05:58 | 42.53435 | 124.98210 | 29960 ft | 438 kts | 215° |
| 2026-05-06 05:58 | 42.48063 | 124.94456 | 29946 ft | 436 kts | 215° |
| 2026-05-06 05:59 | 42.42638 | 124.90698 | 29961 ft | 440 kts | 215° |
| 2026-05-06 05:59 | 42.37223 | 124.86953 | 29932 ft | 438 kts | 216° |
| 2026-05-06 06:00 | 42.31805 | 124.83195 | 29949 ft | 439 kts | 215° |
| 2026-05-06 06:00 | 42.26401 | 124.79467 | 29948 ft | 438 kts | 216° |
| 2026-05-06 06:01 | 42.20942 | 124.75691 | 29949 ft | 439 kts | 216° |
| 2026-05-06 06:01 | 42.15549 | 124.71981 | 29954 ft | 437 kts | 216° |
| 2026-05-06 06:02 | 42.10104 | 124.68272 | 29940 ft | 438 kts | 215° |
| 2026-05-06 06:02 | 42.04618 | 124.64545 | 29937 ft | 439 kts | 217° |
| 2026-05-06 06:03 | 41.99231 | 124.60751 | 29954 ft | 436 kts | 218° |
| 2026-05-06 06:03 | 41.93928 | 124.56787 | 29961 ft | 435 kts | 218° |
| 2026-05-06 06:04 | 41.88650 | 124.52805 | 29962 ft | 438 kts | 219° |
| 2026-05-06 06:04 | 41.83358 | 124.48773 | 29962 ft | 439 kts | 219° |
| 2026-05-06 06:05 | 41.78098 | 124.44795 | 29954 ft | 435 kts | 219° |
| 2026-05-06 06:05 | 41.72807 | 124.40762 | 29972 ft | 437 kts | 219° |
| 2026-05-06 06:06 | 41.67523 | 124.36761 | 29966 ft | 441 kts | 218° |
| 2026-05-06 06:06 | 41.62184 | 124.32726 | 29979 ft | 441 kts | 218° |
| 2026-05-06 06:07 | 41.56849 | 124.28678 | 29956 ft | 441 kts | 218° |
| 2026-05-06 06:07 | 41.51486 | 124.24662 | 29937 ft | 440 kts | 218° |
| 2026-05-06 06:08 | 41.46137 | 124.20638 | 29941 ft | 442 kts | 218° |
| 2026-05-06 06:08 | 41.40835 | 124.16524 | 29939 ft | 439 kts | 220° |
| 2026-05-06 06:09 | 41.35414 | 124.12601 | 29954 ft | 443 kts | 217° |
| 2026-05-06 06:09 | 41.29995 | 124.08710 | 29948 ft | 442 kts | 217° |
| 2026-05-06 06:10 | 41.24601 | 124.04826 | 29962 ft | 442 kts | 217° |
| 2026-05-06 06:10 | 41.19221 | 124.00957 | 29970 ft | 442 kts | 218° |
| 2026-05-06 06:11 | 41.13788 | 123.97061 | 29960 ft | 443 kts | 218° |
| 2026-05-06 06:11 | 41.08366 | 123.93157 | 29969 ft | 444 kts | 218° |
| 2026-05-06 06:12 | 41.02935 | 123.89236 | 29968 ft | 447 kts | 217° |
| 2026-05-06 06:12 | 40.97504 | 123.85354 | 29957 ft | 444 kts | 218° |
| 2026-05-06 06:13 | 40.92055 | 123.81493 | 29957 ft | 444 kts | 217° |
| 2026-05-06 06:13 | 40.86653 | 123.77598 | 29956 ft | 443 kts | 218° |
| 2026-05-06 06:14 | 40.81247 | 123.73585 | 29973 ft | 446 kts | 218° |
| 2026-05-06 06:14 | 40.75833 | 123.69675 | 29958 ft | 441 kts | 218° |
| 2026-05-06 06:15 | 40.70437 | 123.65747 | 29979 ft | 445 kts | 218° |
| 2026-05-06 06:15 | 40.65022 | 123.61800 | 29959 ft | 444 kts | 218° |
| 2026-05-06 06:16 | 40.59655 | 123.57812 | 29982 ft | 442 kts | 219° |
| 2026-05-06 06:16 | 40.54275 | 123.53835 | 29966 ft | 446 kts | 217° |
| 2026-05-06 06:17 | 40.48822 | 123.49896 | 29980 ft | 444 kts | 217° |
| 2026-05-06 06:17 | 40.43424 | 123.45990 | 29975 ft | 445 kts | 218° |
| 2026-05-06 06:18 | 40.38016 | 123.42058 | 29971 ft | 444 kts | 218° |
| 2026-05-06 06:18 | 40.32603 | 123.38137 | 29980 ft | 444 kts | 218° |
| 2026-05-06 06:19 | 40.27177 | 123.34200 | 29976 ft | 445 kts | 217° |
| 2026-05-06 06:19 | 40.21792 | 123.30306 | 29979 ft | 442 kts | 217° |
| 2026-05-06 06:20 | 40.16393 | 123.26427 | 29987 ft | 444 kts | 217° |
| 2026-05-06 06:20 | 40.10959 | 123.22523 | 29974 ft | 443 kts | 217° |
| 2026-05-06 06:21 | 40.05622 | 123.18600 | 29981 ft | 443 kts | 218° |
| 2026-05-06 06:21 | 40.00163 | 123.14625 | 29983 ft | 447 kts | 217° |
| 2026-05-06 06:22 | 39.94775 | 123.10733 | 29973 ft | 445 kts | 217° |
| 2026-05-06 06:22 | 39.89342 | 123.06797 | 29965 ft | 446 kts | 217° |
| 2026-05-06 06:23 | 39.83915 | 123.02859 | 29958 ft | 442 kts | 217° |
| 2026-05-06 06:23 | 39.78541 | 122.98985 | 29959 ft | 446 kts | 217° |
| 2026-05-06 06:24 | 39.73098 | 122.95047 | 29976 ft | 447 kts | 217° |
| 2026-05-06 06:24 | 39.67682 | 122.91130 | 29958 ft | 448 kts | 217° |
| 2026-05-06 06:25 | 39.62275 | 122.87244 | 29959 ft | 444 kts | 217° |
| 2026-05-06 06:26 | 39.54124 | 122.81395 | 29968 ft | 448 kts | 217° |
| 2026-05-06 06:26 | 39.48664 | 122.77479 | 29962 ft | 449 kts | 217° |
| 2026-05-06 06:27 | 39.43240 | 122.73596 | 29954 ft | 449 kts | 217° |
| 2026-05-06 06:27 | 39.37766 | 122.69698 | 29957 ft | 447 kts | 216° |
| 2026-05-06 06:28 | 39.32342 | 122.65839 | 29956 ft | 448 kts | 217° |
| 2026-05-06 06:28 | 39.26903 | 122.61887 | 29949 ft | 447 kts | 218° |
| 2026-05-06 06:29 | 39.21616 | 122.57694 | 29954 ft | 445 kts | 219° |
| 2026-05-06 06:29 | 39.16353 | 122.53503 | 29957 ft | 446 kts | 219° |
| 2026-05-06 06:30 | 39.11100 | 122.49332 | 29951 ft | 444 kts | 219° |
| 2026-05-06 06:30 | 39.05815 | 122.45122 | 29948 ft | 446 kts | 219° |
| 2026-05-06 06:31 | 39.00535 | 122.40955 | 29946 ft | 449 kts | 219° |
| 2026-05-06 06:31 | 38.95259 | 122.36740 | 29946 ft | 450 kts | 219° |
| 2026-05-06 06:32 | 38.90369 | 122.31936 | 29926 ft | 431 kts | 235° |
| 2026-05-06 06:32 | 38.88721 | 122.28800 | 29944 ft | 423 kts | 247° |
| 2026-05-06 06:32 | 38.87502 | 122.25365 | 29975 ft | 422 kts | 250° |
| 2026-05-06 06:33 | 38.84980 | 122.18476 | 29976 ft | 425 kts | 249° |
| 2026-05-06 06:33 | 38.82455 | 122.11618 | 29946 ft | 428 kts | 249° |
| 2026-05-06 06:34 | 38.79924 | 122.04752 | 29938 ft | 427 kts | 249° |
| 2026-05-06 06:34 | 38.77403 | 121.97898 | 29933 ft | 425 kts | 248° |
| 2026-05-06 06:35 | 38.74874 | 121.91065 | 29943 ft | 426 kts | 249° |
| 2026-05-06 06:35 | 38.72339 | 121.84235 | 29934 ft | 425 kts | 248° |
| 2026-05-06 06:36 | 38.69809 | 121.77411 | 29936 ft | 427 kts | 249° |
| 2026-05-06 06:36 | 38.67268 | 121.70606 | 29937 ft | 425 kts | 248° |
| 2026-05-06 06:37 | 38.64714 | 121.63795 | 29932 ft | 425 kts | 249° |
| 2026-05-06 06:37 | 38.62177 | 121.57019 | 29930 ft | 427 kts | 248° |
| 2026-05-06 06:38 | 38.59613 | 121.50194 | 29929 ft | 427 kts | 248° |
| 2026-05-06 06:38 | 38.57044 | 121.43352 | 29928 ft | 426 kts | 249° |
| 2026-05-06 06:39 | 38.54500 | 121.36576 | 29923 ft | 426 kts | 248° |
| 2026-05-06 06:39 | 38.51895 | 121.29747 | 29939 ft | 426 kts | 248° |
| 2026-05-06 06:40 | 38.49285 | 121.22893 | 29922 ft | 427 kts | 248° |
| 2026-05-06 06:40 | 38.46771 | 121.16115 | 29908 ft | 427 kts | 248° |
| 2026-05-06 06:41 | 38.43680 | 121.09542 | 29916 ft | 430 kts | 241° |
| 2026-05-06 06:41 | 38.40507 | 121.03138 | 29907 ft | 431 kts | 242° |
| 2026-05-06 06:42 | 38.37320 | 120.96714 | 29898 ft | 428 kts | 242° |
| 2026-05-06 06:42 | 38.34135 | 120.90317 | 29888 ft | 428 kts | 243° |
| 2026-05-06 06:43 | 38.30931 | 120.83893 | 29891 ft | 431 kts | 242° |
| 2026-05-06 06:43 | 38.27746 | 120.77457 | 29891 ft | 428 kts | 242° |
| 2026-05-06 06:44 | 38.24075 | 120.71410 | 29859 ft | 443 kts | 226° |
| 2026-05-06 06:44 | 38.21468 | 120.69176 | 29873 ft | 455 kts | 214° |
| 2026-05-06 06:44 | 38.18576 | 120.67537 | 29900 ft | 457 kts | 210° |
| 2026-05-06 06:45 | 38.12857 | 120.64115 | 29902 ft | 453 kts | 212° |
| 2026-05-06 06:45 | 38.07157 | 120.60661 | 29896 ft | 452 kts | 212° |
| 2026-05-06 06:46 | 38.01384 | 120.57452 | 29859 ft | 463 kts | 202° |
| 2026-05-06 06:46 | 37.98174 | 120.56805 | 29868 ft | 473 kts | 190° |
| 2026-05-06 06:46 | 37.94879 | 120.56663 | 29892 ft | 473 kts | 189° |
| 2026-05-06 06:47 | 37.88285 | 120.56181 | 29888 ft | 473 kts | 190° |
| 2026-05-06 06:47 | 37.81717 | 120.55708 | 29881 ft | 472 kts | 191° |
| 2026-05-06 06:48 | 37.75183 | 120.55222 | 29882 ft | 471 kts | 191° |
| 2026-05-06 06:48 | 37.68615 | 120.54734 | 29890 ft | 472 kts | 191° |
| 2026-05-06 06:49 | 37.62097 | 120.54036 | 29894 ft | 468 kts | 195° |
| 2026-05-06 06:49 | 37.55653 | 120.53044 | 29926 ft | 468 kts | 194° |
| 2026-05-06 06:50 | 37.49147 | 120.52062 | 29953 ft | 470 kts | 194° |
| 2026-05-06 06:50 | 37.42687 | 120.51094 | 29962 ft | 468 kts | 194° |
| 2026-05-06 06:51 | 37.36223 | 120.50136 | 29951 ft | 467 kts | 194° |
| 2026-05-06 06:51 | 37.29736 | 120.49165 | 29943 ft | 469 kts | 194° |
| 2026-05-06 06:52 | 37.23277 | 120.48213 | 29930 ft | 469 kts | 194° |
| 2026-05-06 06:52 | 37.16787 | 120.47253 | 29915 ft | 468 kts | 194° |
| 2026-05-06 06:53 | 37.10342 | 120.46294 | 29917 ft | 468 kts | 193° |
| 2026-05-06 06:53 | 37.03860 | 120.45337 | 29930 ft | 469 kts | 193° |
| 2026-05-06 06:54 | 36.97362 | 120.44378 | 29928 ft | 469 kts | 194° |
| 2026-05-06 06:54 | 36.90911 | 120.43424 | 29927 ft | 467 kts | 193° |
| 2026-05-06 06:55 | 36.84407 | 120.42473 | 29922 ft | 469 kts | 193° |
| 2026-05-06 06:55 | 36.77879 | 120.41509 | 29924 ft | 467 kts | 193° |
| 2026-05-06 06:56 | 36.71413 | 120.40565 | 29922 ft | 469 kts | 193° |
| 2026-05-06 06:56 | 36.64960 | 120.39623 | 29938 ft | 468 kts | 193° |
| 2026-05-06 06:57 | 36.58440 | 120.38676 | 29939 ft | 467 kts | 194° |
| 2026-05-06 06:57 | 36.51998 | 120.37650 | 29922 ft | 468 kts | 194° |
| 2026-05-06 06:58 | 36.45521 | 120.36613 | 29940 ft | 469 kts | 194° |
| 2026-05-06 06:58 | 36.39072 | 120.35586 | 29934 ft | 468 kts | 194° |
| 2026-05-06 06:59 | 36.32590 | 120.34552 | 29953 ft | 470 kts | 193° |
| 2026-05-06 06:59 | 36.26139 | 120.33514 | 29949 ft | 470 kts | 193° |
| 2026-05-06 07:00 | 36.19646 | 120.32482 | 29944 ft | 468 kts | 193° |
| 2026-05-06 07:00 | 36.13151 | 120.31448 | 29948 ft | 472 kts | 193° |
| 2026-05-06 07:01 | 36.06683 | 120.30407 | 29945 ft | 470 kts | 193° |
| 2026-05-06 07:01 | 36.00183 | 120.29379 | 29954 ft | 469 kts | 193° |
| 2026-05-06 07:02 | 35.93796 | 120.28038 | 29929 ft | 463 kts | 204° |
| 2026-05-06 07:02 | 35.90889 | 120.26424 | 29941 ft | 452 kts | 216° |
| 2026-05-06 07:02 | 35.88428 | 120.24115 | 29950 ft | 444 kts | 229° |
| 2026-05-06 07:02 | 35.86487 | 120.21219 | 29959 ft | 438 kts | 240° |
| 2026-05-06 07:03 | 35.84779 | 120.18102 | 29972 ft | 441 kts | 236° |
| 2026-05-06 07:03 | 35.80631 | 120.12527 | 29970 ft | 445 kts | 229° |
| 2026-05-06 07:04 | 35.76058 | 120.07278 | 29956 ft | 447 kts | 226° |
| 2026-05-06 07:04 | 35.71366 | 120.02282 | 29947 ft | 447 kts | 225° |
| 2026-05-06 07:05 | 35.66620 | 119.97349 | 29946 ft | 446 kts | 225° |
| 2026-05-06 07:05 | 35.61829 | 119.92448 | 29944 ft | 446 kts | 225° |
| 2026-05-06 07:06 | 35.57054 | 119.87616 | 29949 ft | 447 kts | 224° |
| 2026-05-06 07:06 | 35.52257 | 119.82776 | 29939 ft | 448 kts | 224° |
| 2026-05-06 07:07 | 35.47458 | 119.77914 | 29935 ft | 445 kts | 224° |
| 2026-05-06 07:07 | 35.42744 | 119.73058 | 29929 ft | 446 kts | 224° |
| 2026-05-06 07:08 | 35.37975 | 119.68224 | 29919 ft | 445 kts | 225° |
| 2026-05-06 07:08 | 35.33178 | 119.63346 | 29929 ft | 445 kts | 225° |
| 2026-05-06 07:09 | 35.28412 | 119.58491 | 29922 ft | 444 kts | 225° |
| 2026-05-06 07:09 | 35.23638 | 119.53632 | 29924 ft | 446 kts | 224° |
| 2026-05-06 07:10 | 35.18851 | 119.48753 | 29921 ft | 447 kts | 224° |
| 2026-05-06 07:10 | 35.14088 | 119.43936 | 29915 ft | 446 kts | 224° |
| 2026-05-06 07:11 | 35.09345 | 119.39129 | 29917 ft | 444 kts | 224° |
| 2026-05-06 07:11 | 35.04582 | 119.34293 | 29917 ft | 446 kts | 223° |
| 2026-05-06 07:12 | 34.99796 | 119.29458 | 29919 ft | 445 kts | 223° |
| 2026-05-06 07:12 | 34.95035 | 119.24657 | 29913 ft | 445 kts | 224° |
| 2026-05-06 07:13 | 34.90248 | 119.19843 | 29908 ft | 445 kts | 224° |
| 2026-05-06 07:13 | 34.85471 | 119.15035 | 29908 ft | 445 kts | 224° |
| 2026-05-06 07:14 | 34.80710 | 119.10245 | 29911 ft | 446 kts | 223° |
| 2026-05-06 07:14 | 34.75904 | 119.05424 | 29912 ft | 445 kts | 224° |
| 2026-05-06 07:15 | 34.71144 | 119.00660 | 29907 ft | 445 kts | 224° |
| 2026-05-06 07:15 | 34.66362 | 118.95894 | 29913 ft | 447 kts | 224° |
| 2026-05-06 07:16 | 34.61554 | 118.91091 | 29902 ft | 446 kts | 222° |
| 2026-05-06 07:16 | 34.58928 | 118.89108 | 29878 ft | 454 kts | 210° |
| 2026-05-06 07:16 | 34.55911 | 118.87852 | 29891 ft | 462 kts | 197° |
| 2026-05-06 07:17 | 34.49455 | 118.86955 | 29926 ft | 467 kts | 193° |
| 2026-05-06 07:17 | 34.43021 | 118.85977 | 29900 ft | 456 kts | 193° |
| 2026-05-06 07:17 | 34.39930 | 118.85501 | 29752 ft | 442 kts | 193° |
| 2026-05-06 07:18 | 34.36943 | 118.85027 | 29500 ft | 436 kts | 193° |
| 2026-05-06 07:18 | 34.33914 | 118.84541 | 29227 ft | 432 kts | 193° |
| 2026-05-06 07:18 | 34.30987 | 118.84067 | 28975 ft | 428 kts | 193° |
| 2026-05-06 07:18 | 34.27994 | 118.83592 | 28716 ft | 427 kts | 193° |
| 2026-05-06 07:19 | 34.25090 | 118.83123 | 28467 ft | 426 kts | 194° |
| 2026-05-06 07:19 | 34.22145 | 118.82650 | 28222 ft | 426 kts | 193° |
| 2026-05-06 07:19 | 34.19208 | 118.82179 | 27980 ft | 423 kts | 194° |
| 2026-05-06 07:19 | 34.16289 | 118.81712 | 27725 ft | 421 kts | 193° |
| 2026-05-06 07:20 | 34.13397 | 118.81230 | 27471 ft | 418 kts | 193° |
| 2026-05-06 07:20 | 34.10507 | 118.80752 | 27218 ft | 417 kts | 193° |
| 2026-05-06 07:20 | 34.07631 | 118.80298 | 26972 ft | 416 kts | 193° |
| 2026-05-06 07:20 | 34.04762 | 118.79849 | 26721 ft | 414 kts | 193° |
| 2026-05-06 07:21 | 34.01895 | 118.79386 | 26465 ft | 412 kts | 193° |
| 2026-05-06 07:21 | 33.99060 | 118.78948 | 26217 ft | 410 kts | 193° |
| 2026-05-06 07:21 | 33.96232 | 118.78501 | 25966 ft | 410 kts | 193° |
| 2026-05-06 07:21 | 33.93415 | 118.78052 | 25718 ft | 409 kts | 193° |
| 2026-05-06 07:22 | 33.90577 | 118.77595 | 25473 ft | 406 kts | 193° |
| 2026-05-06 07:22 | 33.87793 | 118.77144 | 25217 ft | 404 kts | 193° |
| 2026-05-06 07:22 | 33.84997 | 118.76686 | 24969 ft | 403 kts | 193° |
| 2026-05-06 07:22 | 33.82259 | 118.76249 | 24730 ft | 401 kts | 193° |
| 2026-05-06 07:23 | 33.79453 | 118.75803 | 24473 ft | 401 kts | 193° |
| 2026-05-06 07:23 | 33.76692 | 118.75360 | 24228 ft | 400 kts | 193° |
| 2026-05-06 07:23 | 33.73930 | 118.74932 | 23973 ft | 399 kts | 193° |
| 2026-05-06 07:23 | 33.71188 | 118.74488 | 23719 ft | 397 kts | 193° |
| 2026-05-06 07:24 | 33.68485 | 118.74060 | 23469 ft | 394 kts | 193° |
| 2026-05-06 07:24 | 33.65770 | 118.73624 | 23209 ft | 392 kts | 193° |
| 2026-05-06 07:24 | 33.63072 | 118.73190 | 22951 ft | 390 kts | 193° |
| 2026-05-06 07:24 | 33.60381 | 118.72763 | 22703 ft | 388 kts | 193° |
| 2026-05-06 07:25 | 33.57694 | 118.72336 | 22448 ft | 387 kts | 193° |
| 2026-05-06 07:25 | 33.55013 | 118.71905 | 22200 ft | 386 kts | 193° |
| 2026-05-06 07:25 | 33.52350 | 118.71478 | 21951 ft | 384 kts | 193° |
| 2026-05-06 07:25 | 33.49705 | 118.71048 | 21701 ft | 383 kts | 193° |
| 2026-05-06 07:26 | 33.47061 | 118.70618 | 21451 ft | 382 kts | 193° |
| 2026-05-06 07:26 | 33.44421 | 118.70188 | 21207 ft | 382 kts | 192° |
| 2026-05-06 07:26 | 33.41791 | 118.69778 | 20960 ft | 380 kts | 192° |
| 2026-05-06 07:26 | 33.39161 | 118.69355 | 20709 ft | 380 kts | 192° |
| 2026-05-06 07:27 | 33.36561 | 118.68943 | 20467 ft | 378 kts | 192° |
| 2026-05-06 07:27 | 33.33943 | 118.68528 | 20220 ft | 376 kts | 192° |
| 2026-05-06 07:27 | 33.31375 | 118.68121 | 19971 ft | 374 kts | 192° |
| 2026-05-06 07:27 | 33.28784 | 118.67709 | 19738 ft | 372 kts | 192° |
| 2026-05-06 07:28 | 33.26228 | 118.67297 | 19581 ft | 370 kts | 192° |
| 2026-05-06 07:28 | 33.23650 | 118.66881 | 19507 ft | 371 kts | 192° |
| 2026-05-06 07:28 | 33.18520 | 118.66061 | 19507 ft | 372 kts | 192° |
| 2026-05-06 07:29 | 33.15942 | 118.65651 | 19514 ft | 367 kts | 192° |
| 2026-05-06 07:29 | 33.13450 | 118.65246 | 19496 ft | 362 kts | 192° |
| 2026-05-06 07:29 | 33.10957 | 118.64850 | 19485 ft | 359 kts | 192° |
| 2026-05-06 07:29 | 33.08476 | 118.64445 | 19490 ft | 358 kts | 192° |
| 2026-05-06 07:30 | 33.05994 | 118.64053 | 19504 ft | 359 kts | 192° |
| 2026-05-06 07:30 | 33.04327 | 118.63782 | 19511 ft | 361 kts | 192° |
| 2026-05-06 07:30 | 33.01012 | 118.63244 | 19530 ft | 360 kts | 192° |
| 2026-05-06 07:30 | 32.98517 | 118.62856 | 19524 ft | 360 kts | 192° |
| 2026-05-06 07:31 | 32.96053 | 118.62453 | 19524 ft | 360 kts | 192° |
| 2026-05-06 07:31 | 32.93560 | 118.62052 | 19528 ft | 361 kts | 192° |
| 2026-05-06 07:31 | 32.91061 | 118.61655 | 19534 ft | 360 kts | 192° |
| 2026-05-06 07:31 | 32.88561 | 118.61253 | 19536 ft | 360 kts | 192° |
| 2026-05-06 07:32 | 32.86098 | 118.60861 | 19538 ft | 360 kts | 192° |
| 2026-05-06 07:32 | 32.83602 | 118.60458 | 19542 ft | 361 kts | 192° |
| 2026-05-06 07:32 | 32.81113 | 118.60062 | 19545 ft | 361 kts | 192° |
| 2026-05-06 07:32 | 32.78611 | 118.59661 | 19547 ft | 361 kts | 192° |
| 2026-05-06 07:33 | 32.76117 | 118.59261 | 19544 ft | 360 kts | 192° |
| 2026-05-06 07:33 | 32.73649 | 118.58864 | 19541 ft | 359 kts | 192° |
| 2026-05-06 07:33 | 32.71153 | 118.58467 | 19540 ft | 360 kts | 192° |
| 2026-05-06 07:33 | 32.68667 | 118.58057 | 19545 ft | 360 kts | 191° |
| 2026-05-06 07:34 | 32.66167 | 118.57976 | 19482 ft | 369 kts | 178° |
| 2026-05-06 07:34 | 32.63634 | 118.58671 | 19235 ft | 376 kts | 165° |
| 2026-05-06 07:34 | 32.61169 | 118.59676 | 18887 ft | 372 kts | 166° |
| 2026-05-06 07:34 | 32.58698 | 118.60573 | 18471 ft | 368 kts | 167° |
| 2026-05-06 07:35 | 32.56263 | 118.61443 | 18053 ft | 363 kts | 167° |
| 2026-05-06 07:35 | 32.53871 | 118.62289 | 17651 ft | 361 kts | 167° |
| 2026-05-06 07:35 | 32.51463 | 118.63125 | 17231 ft | 358 kts | 167° |
| 2026-05-06 07:35 | 32.49071 | 118.63952 | 16833 ft | 356 kts | 167° |
| 2026-05-06 07:36 | 32.46693 | 118.64766 | 16431 ft | 354 kts | 167° |
| 2026-05-06 07:36 | 32.44368 | 118.65562 | 16023 ft | 351 kts | 167° |
| 2026-05-06 07:36 | 32.42018 | 118.66363 | 15617 ft | 348 kts | 167° |
| 2026-05-06 07:36 | 32.39691 | 118.67158 | 15207 ft | 346 kts | 167° |
| 2026-05-06 07:37 | 32.37376 | 118.67942 | 14795 ft | 342 kts | 167° |
| 2026-05-06 07:37 | 32.35126 | 118.68705 | 14387 ft | 340 kts | 167° |
| 2026-05-06 07:37 | 32.32856 | 118.69470 | 13985 ft | 338 kts | 167° |
| 2026-05-06 07:37 | 32.30598 | 118.70231 | 13579 ft | 334 kts | 166° |
| 2026-05-06 07:38 | 32.28360 | 118.70977 | 13166 ft | 333 kts | 166° |
| 2026-05-06 07:38 | 32.26151 | 118.71721 | 12769 ft | 332 kts | 166° |
| 2026-05-06 07:38 | 32.23936 | 118.72473 | 12361 ft | 327 kts | 166° |
| 2026-05-06 07:38 | 32.21744 | 118.73216 | 11954 ft | 326 kts | 166° |
| 2026-05-06 07:39 | 32.19562 | 118.73957 | 11550 ft | 324 kts | 166° |
| 2026-05-06 07:39 | 32.17433 | 118.74684 | 11136 ft | 318 kts | 166° |
| 2026-05-06 07:39 | 32.15323 | 118.75394 | 10712 ft | 311 kts | 167° |
| 2026-05-06 07:39 | 32.13251 | 118.76087 | 10287 ft | 306 kts | 166° |
| 2026-05-06 07:40 | 32.11225 | 118.76766 | 9868 ft | 301 kts | 166° |
| 2026-05-06 07:40 | 32.09219 | 118.77444 | 9453 ft | 297 kts | 167° |
| 2026-05-06 07:40 | 32.07264 | 118.78098 | 9052 ft | 292 kts | 167° |
| 2026-05-06 07:40 | 32.05314 | 118.78751 | 8645 ft | 288 kts | 166° |
| 2026-05-06 07:41 | 32.03412 | 118.79385 | 8238 ft | 284 kts | 166° |
| 2026-05-06 07:41 | 32.01514 | 118.80013 | 7826 ft | 281 kts | 166° |
| 2026-05-06 07:41 | 31.99637 | 118.80639 | 7410 ft | 277 kts | 166° |
| 2026-05-06 07:41 | 31.97801 | 118.81257 | 7123 ft | 270 kts | 166° |
| 2026-05-06 07:42 | 31.95997 | 118.81819 | 7002 ft | 271 kts | 166° |
| 2026-05-06 07:42 | 31.94159 | 118.82404 | 6841 ft | 273 kts | 166° |
| 2026-05-06 07:42 | 31.92340 | 118.82989 | 6541 ft | 266 kts | 166° |
| 2026-05-06 07:42 | 31.90571 | 118.83554 | 6237 ft | 260 kts | 166° |
| 2026-05-06 07:43 | 31.88848 | 118.84103 | 5917 ft | 255 kts | 166° |
| 2026-05-06 07:43 | 31.87148 | 118.84649 | 5609 ft | 250 kts | 166° |
| 2026-05-06 07:43 | 31.85552 | 118.85426 | 5277 ft | 248 kts | 147° |
| 2026-05-06 07:43 | 31.84345 | 118.86852 | 4972 ft | 249 kts | 124° |
| 2026-05-06 07:44 | 31.83711 | 118.88744 | 4678 ft | 251 kts | 101° |
| 2026-05-06 07:44 | 31.83762 | 118.90791 | 4383 ft | 253 kts | 77° |
| 2026-05-06 07:44 | 31.84492 | 118.92638 | 4234 ft | 255 kts | 54° |
| 2026-05-06 07:44 | 31.85699 | 118.94144 | 4101 ft | 250 kts | 45° |
| 2026-05-06 07:45 | 31.86923 | 118.95552 | 3975 ft | 242 kts | 47° |
| 2026-05-06 07:45 | 31.88095 | 118.96966 | 3917 ft | 239 kts | 47° |
| 2026-05-06 07:45 | 31.89263 | 118.98370 | 3906 ft | 240 kts | 48° |
| 2026-05-06 07:45 | 31.90422 | 118.99771 | 3898 ft | 239 kts | 48° |
| 2026-05-06 07:46 | 31.91584 | 119.01176 | 3888 ft | 239 kts | 48° |
| 2026-05-06 07:46 | 31.92735 | 119.02570 | 3889 ft | 239 kts | 48° |
| 2026-05-06 07:46 | 31.93883 | 119.04000 | 3877 ft | 238 kts | 55° |
| 2026-05-06 07:46 | 31.94623 | 119.05713 | 3867 ft | 233 kts | 80° |
| 2026-05-06 07:47 | 31.94690 | 119.07589 | 3835 ft | 230 kts | 104° |
| 2026-05-06 07:47 | 31.94100 | 119.09259 | 3777 ft | 213 kts | 129° |
| 2026-05-06 07:47 | 31.93045 | 119.10345 | 3608 ft | 199 kts | 156° |
| 2026-05-06 07:47 | 31.91739 | 119.10782 | 3498 ft | 193 kts | 170° |
| 2026-05-06 07:48 | 31.90404 | 119.11066 | 3381 ft | 193 kts | 168° |
| 2026-05-06 07:48 | 31.89080 | 119.11398 | 3259 ft | 193 kts | 168° |
| 2026-05-06 07:48 | 31.87765 | 119.11694 | 3124 ft | 193 kts | 176° |
| 2026-05-06 07:48 | 31.86446 | 119.11430 | 3005 ft | 195 kts | 204° |
| 2026-05-06 07:49 | 31.85379 | 119.10420 | 2887 ft | 199 kts | 231° |
| 2026-05-06 07:49 | 31.84613 | 119.09077 | 2774 ft | 200 kts | 234° |
| 2026-05-06 07:49 | 31.83822 | 119.07713 | 2656 ft | 199 kts | 231° |
| 2026-05-06 07:49 | 31.83007 | 119.06400 | 2530 ft | 199 kts | 231° |
| 2026-05-06 07:50 | 31.82235 | 119.05070 | 2493 ft | 188 kts | 234° |
| 2026-05-06 07:50 | 31.81537 | 119.03807 | 2343 ft | 184 kts | 234° |
| 2026-05-06 07:50 | 31.80852 | 119.02556 | 2159 ft | 181 kts | 234° |
| 2026-05-06 07:50 | 31.80189 | 119.01322 | 2025 ft | 177 kts | 235° |
| 2026-05-06 07:51 | 31.79544 | 119.00114 | 2039 ft | 168 kts | 234° |
| 2026-05-06 07:51 | 31.78930 | 118.98969 | 2169 ft | 164 kts | 234° |
| 2026-05-06 07:51 | 31.78327 | 118.97839 | 2034 ft | 164 kts | 234° |
| 2026-05-06 07:51 | 31.77723 | 118.96715 | 1777 ft | 161 kts | 235° |
| 2026-05-06 07:52 | 31.77134 | 118.95608 | 1543 ft | 159 kts | 234° |
| 2026-05-06 07:52 | 31.76554 | 118.94524 | 1336 ft | 157 kts | 235° |
| 2026-05-06 07:52 | 31.75973 | 118.93435 | 1102 ft | 157 kts | 235° |
| 2026-05-06 07:52 | 31.75395 | 118.92358 | 888 ft | 155 kts | 235° |
| 2026-05-06 07:53 | 31.74825 | 118.91288 | 659 ft | 154 kts | 235° |
| 2026-05-06 07:53 | 31.74263 | 118.90227 | 460 ft | 152 kts | 234° |
| 2026-05-06 07:53 | 31.73693 | 118.89169 | 282 ft | 152 kts | 235° |
| 2026-05-06 07:53 | 31.73126 | 118.88120 | 106 ft | 152 kts | 235° |
| 2026-05-06 07:54 | 31.72580 | 118.87096 | 60 ft | 130 kts | 236° |
| 2026-05-06 07:54 | 31.72219 | 118.86434 | 60 ft | 64 kts | 238° |
| 2026-05-06 07:54 | 31.72121 | 118.86221 | 60 ft | 10 kts | 259° |
| 2026-05-06 07:54 | 31.72109 | 118.86139 | 60 ft | 9 kts | 263° |
| 2026-05-06 07:55 | 31.72104 | 118.86060 | 60 ft | 9 kts | 265° |
| 2026-05-06 07:55 | 31.72099 | 118.85982 | 60 ft | 9 kts | 266° |
| 2026-05-06 07:55 | 31.72119 | 118.85925 | 60 ft | 7 kts | 348° |
| 2026-05-06 07:55 | 31.72164 | 118.85953 | 60 ft | 7 kts | 50° |
| 2026-05-06 07:56 | 31.72192 | 118.86005 | 60 ft | 7 kts | 59° |
| 2026-05-06 07:56 | 31.72218 | 118.86054 | 60 ft | 7 kts | 58° |
| 2026-05-06 07:56 | 31.72244 | 118.86102 | 60 ft | 7 kts | 58° |
| 2026-05-06 07:56 | 31.72270 | 118.86152 | 60 ft | 7 kts | 58° |
| 2026-05-06 07:57 | 31.72298 | 118.86203 | 60 ft | 7 kts | 58° |
| 2026-05-06 07:57 | 31.72326 | 118.86256 | 60 ft | 7 kts | 58° |
| 2026-05-06 07:57 | 31.72356 | 118.86312 | 60 ft | 8 kts | 58° |
| 2026-05-06 07:57 | 31.72386 | 118.86369 | 60 ft | 8 kts | 58° |
| 2026-05-06 07:58 | 31.72417 | 118.86427 | 60 ft | 8 kts | 58° |
| 2026-05-06 07:58 | 31.72449 | 118.86488 | 60 ft | 8 kts | 58° |
| 2026-05-06 07:58 | 31.72482 | 118.86550 | 60 ft | 9 kts | 58° |
| 2026-05-06 07:58 | 31.72516 | 118.86613 | 60 ft | 8 kts | 56° |
| 2026-05-06 07:59 | 31.72570 | 118.86633 | 60 ft | 8 kts | 343° |
| 2026-05-06 07:59 | 31.72624 | 118.86595 | 60 ft | 9 kts | 327° |
| 2026-05-06 07:59 | 31.72678 | 118.86555 | 60 ft | 9 kts | 328° |
| 2026-05-06 07:59 | 31.72734 | 118.86513 | 60 ft | 9 kts | 328° |
| 2026-05-06 08:00 | 31.72793 | 118.86472 | 60 ft | 9 kts | 328° |
| 2026-05-06 08:00 | 31.72853 | 118.86428 | 60 ft | 10 kts | 328° |
| 2026-05-06 08:00 | 31.72914 | 118.86382 | 60 ft | 10 kts | 328° |
| 2026-05-06 08:00 | 31.72977 | 118.86337 | 60 ft | 10 kts | 328° |
| 2026-05-06 08:01 | 31.73043 | 118.86289 | 60 ft | 11 kts | 328° |
| 2026-05-06 08:01 | 31.73109 | 118.86240 | 60 ft | 11 kts | 327° |
| 2026-05-06 08:01 | 31.73178 | 118.86189 | 60 ft | 11 kts | 328° |
| 2026-05-06 08:01 | 31.73249 | 118.86138 | 60 ft | 12 kts | 328° |
| 2026-05-06 08:02 | 31.73320 | 118.86086 | 60 ft | 12 kts | 328° |
| 2026-05-06 08:02 | 31.73395 | 118.86031 | 60 ft | 12 kts | 328° |
| 2026-05-06 08:02 | 31.73470 | 118.85975 | 60 ft | 13 kts | 328° |
| 2026-05-06 08:02 | 31.73550 | 118.85918 | 60 ft | 13 kts | 328° |
| 2026-05-06 08:03 | 31.73631 | 118.85858 | 60 ft | 13 kts | 328° |
| 2026-05-06 08:03 | 31.73713 | 118.85799 | 60 ft | 14 kts | 328° |
| 2026-05-06 08:03 | 31.73770 | 118.85780 | 60 ft | 8 kts | 22° |
| 2026-05-06 08:03 | 31.73811 | 118.85832 | 60 ft | 8 kts | 57° |
| 2026-05-06 08:04 | 31.73844 | 118.85893 | 60 ft | 9 kts | 58° |
| 2026-05-06 08:04 | 31.73877 | 118.85957 | 60 ft | 9 kts | 57° |
| 2026-05-06 08:04 | 31.73912 | 118.86021 | 60 ft | 9 kts | 58° |
| 2026-05-06 08:04 | 31.73947 | 118.86086 | 60 ft | 9 kts | 58° |
| 2026-05-06 08:05 | 31.73983 | 118.86153 | 60 ft | 9 kts | 58° |
| 2026-05-06 08:05 | 31.74019 | 118.86222 | 60 ft | 10 kts | 58° |
| 2026-05-06 08:05 | 31.74057 | 118.86292 | 60 ft | 10 kts | 58° |
| 2026-05-06 08:05 | 31.74095 | 118.86363 | 60 ft | 10 kts | 58° |
| 2026-05-06 08:06 | 31.74134 | 118.86437 | 60 ft | 10 kts | 58° |
| 2026-05-06 08:06 | 31.74175 | 118.86512 | 60 ft | 10 kts | 58° |
| 2026-05-06 08:06 | 31.74215 | 118.86588 | 60 ft | 11 kts | 58° |
| 2026-05-06 08:06 | 31.74257 | 118.86666 | 60 ft | 11 kts | 58° |
| 2026-05-06 08:07 | 31.74300 | 118.86746 | 60 ft | 11 kts | 58° |
| 2026-05-06 08:07 | 31.74343 | 118.86827 | 60 ft | 10 kts | 58° |
| 2026-05-06 08:07 | 31.74346 | 118.86896 | 60 ft | 9 kts | 130° |
| 2026-05-06 08:07 | 31.74314 | 118.86953 | 60 ft | 8 kts | 90° |
| 2026-05-06 08:08 | 31.74307 | 118.87006 | 60 ft | 5 kts | 125° |
| 2026-05-06 08:08 | 31.74278 | 118.87034 | 60 ft | 5 kts | 144° |
| 2026-05-06 08:08 | 31.74262 | 118.87048 | 60 ft | 1 kts | 146° |
| 2026-05-06 08:08 | 31.74255 | 118.87052 | 60 ft | 1 kts | 147° |
| 2026-05-06 08:09 | 31.74251 | 118.87056 | 60 ft | 0 kts | 147° |